sensor_id;sensor_type;location;lat;lon;timestamp;pressure;altitude;pressure_sealevel;temperature;humidity
13486;BME280;6815;59.336;17.998;2023-01-28T00:00:04;79090.34;;;-145.37;79.91
13486;BME280;6815;59.336;17.998;2023-01-28T00:02:31;79118.50;;;-145.37;79.99
13486;BME280;6815;59.336;17.998;2023-01-28T00:04:57;79110.44;;;-145.37;80.84
13486;BME280;6815;59.336;17.998;2023-01-28T00:07:22;79122.53;;;-145.37;80.33
13486;BME280;6815;59.336;17.998;2023-01-28T00:09:50;79110.44;;;-145.37;81.08
13486;BME280;6815;59.336;17.998;2023-01-28T00:12:16;79112.47;;;-145.37;81.84
13486;BME280;6815;59.336;17.998;2023-01-28T00:14:41;79102.41;;;-145.37;81.86
13486;BME280;6815;59.336;17.998;2023-01-28T00:17:07;79098.38;;;-145.37;82.17
13486;BME280;6815;59.336;17.998;2023-01-28T00:19:32;79110.44;;;-145.37;82.66
13486;BME280;6815;59.336;17.998;2023-01-28T00:21:58;79114.47;;;-145.37;83.16
13486;BME280;6815;59.336;17.998;2023-01-28T00:24:23;79106.44;;;-145.37;83.51
13486;BME280;6815;59.336;17.998;2023-01-28T00:26:48;79088.31;;;-145.37;82.83
13486;BME280;6815;59.336;17.998;2023-01-28T00:29:15;79082.28;;;-145.37;82.66
13486;BME280;6815;59.336;17.998;2023-01-28T00:31:41;79070.22;;;-145.37;82.49
13486;BME280;6815;59.336;17.998;2023-01-28T00:34:07;79054.13;;;-145.37;81.37
13486;BME280;6815;59.336;17.998;2023-01-28T00:36:33;79076.25;;;-145.37;81.88
13486;BME280;6815;59.336;17.998;2023-01-28T00:39:03;79072.22;;;-145.37;81.42
13486;BME280;6815;59.336;17.998;2023-01-28T00:41:29;79068.19;;;-145.37;81.19
13486;BME280;6815;59.336;17.998;2023-01-28T00:43:55;79052.09;;;-145.37;80.57
13486;BME280;6815;59.336;17.998;2023-01-28T00:46:21;79060.16;;;-145.37;80.80
13486;BME280;6815;59.336;17.998;2023-01-28T00:48:47;79046.06;;;-145.37;80.82
13486;BME280;6815;59.336;17.998;2023-01-28T00:51:15;79042.03;;;-145.37;80.31
13486;BME280;6815;59.336;17.998;2023-01-28T00:53:41;79011.88;;;-145.37;79.48
13486;BME280;6815;59.336;17.998;2023-01-28T00:56:11;79001.81;;;-145.37;79.45
13486;BME280;6815;59.336;17.998;2023-01-28T00:58:41;79068.19;;;-145.37;80.57
13486;BME280;6815;59.336;17.998;2023-01-28T01:01:20;79050.09;;;-145.37;80.85
13486;BME280;6815;59.336;17.998;2023-01-28T01:03:52;79027.97;;;-145.37;79.98
13486;BME280;6815;59.336;17.998;2023-01-28T01:06:41;79036.00;;;-145.37;79.74
13486;BME280;6815;59.336;17.998;2023-01-28T01:09:09;79048.06;;;-145.37;80.04
13486;BME280;6815;59.336;17.998;2023-01-28T01:11:37;79034.00;;;-145.37;79.74
13486;BME280;6815;59.336;17.998;2023-01-28T01:14:03;79007.84;;;-145.37;79.43
13486;BME280;6815;59.336;17.998;2023-01-28T01:16:31;79003.81;;;-145.37;79.15
13486;BME280;6815;59.336;17.998;2023-01-28T01:18:57;79029.97;;;-145.37;79.31
13486;BME280;6815;59.336;17.998;2023-01-28T01:21:25;79027.97;;;-145.37;79.40
13486;BME280;6815;59.336;17.998;2023-01-28T01:23:54;79044.06;;;-145.37;80.18
13486;BME280;6815;59.336;17.998;2023-01-28T01:26:20;79017.91;;;-145.37;79.62
13486;BME280;6815;59.336;17.998;2023-01-28T01:28:45;78995.75;;;-145.37;79.35
13486;BME280;6815;59.336;17.998;2023-01-28T01:31:15;78999.78;;;-145.37;79.20
13486;BME280;6815;59.336;17.998;2023-01-28T01:33:43;79003.81;;;-145.37;79.16
13486;BME280;6815;59.336;17.998;2023-01-28T01:36:10;78983.69;;;-145.37;78.70
13486;BME280;6815;59.336;17.998;2023-01-28T01:38:36;78967.59;;;-145.37;78.33
13486;BME280;6815;59.336;17.998;2023-01-28T01:41:03;78947.47;;;-145.37;77.73
13486;BME280;6815;59.336;17.998;2023-01-28T01:43:50;78977.66;;;-145.37;78.35
13486;BME280;6815;59.336;17.998;2023-01-28T01:46:27;78981.69;;;-145.37;78.62
13486;BME280;6815;59.336;17.998;2023-01-28T01:48:56;78971.63;;;-145.37;78.51
13486;BME280;6815;59.336;17.998;2023-01-28T01:51:30;78983.69;;;-145.37;78.61
13486;BME280;6815;59.336;17.998;2023-01-28T01:53:58;78993.75;;;-145.37;78.87
13486;BME280;6815;59.336;17.998;2023-01-28T01:56:29;78985.72;;;-145.37;78.44
13486;BME280;6815;59.336;17.998;2023-01-28T01:58:56;78967.59;;;-145.37;78.26
13486;BME280;6815;59.336;17.998;2023-01-28T02:01:26;78969.59;;;-145.37;77.94
13486;BME280;6815;59.336;17.998;2023-01-28T02:04:06;78959.56;;;-145.37;78.26
13486;BME280;6815;59.336;17.998;2023-01-28T02:06:34;78943.47;;;-145.37;77.31
13486;BME280;6815;59.336;17.998;2023-01-28T02:09:00;78941.44;;;-145.37;77.81
13486;BME280;6815;59.336;17.998;2023-01-28T02:11:29;78929.38;;;-145.37;77.56
13486;BME280;6815;59.336;17.998;2023-01-28T02:13:59;78913.28;;;-145.37;77.47
13486;BME280;6815;59.336;17.998;2023-01-28T02:16:26;78913.28;;;-145.37;77.01
13486;BME280;6815;59.336;17.998;2023-01-28T02:18:53;78909.25;;;-145.37;76.84
13486;BME280;6815;59.336;17.998;2023-01-28T02:29:39;78941.44;;;-145.37;78.76
13486;BME280;6815;59.336;17.998;2023-01-28T02:34:46;78931.38;;;-145.37;79.09
13486;BME280;6815;59.336;17.998;2023-01-28T02:37:20;78921.31;;;-145.37;78.42
13486;BME280;6815;59.336;17.998;2023-01-28T02:39:50;78917.31;;;-145.37;78.25
13486;BME280;6815;59.336;17.998;2023-01-28T02:42:26;78931.38;;;-145.37;79.12
13486;BME280;6815;59.336;17.998;2023-01-28T02:44:56;78911.25;;;-145.37;78.93
13486;BME280;6815;59.336;17.998;2023-01-28T02:47:21;78901.19;;;-145.37;78.98
13486;BME280;6815;59.336;17.998;2023-01-28T02:50:11;78885.09;;;-145.37;78.15
13486;BME280;6815;59.336;17.998;2023-01-28T03:00:59;78834.81;;;-145.37;77.04
13486;BME280;6815;59.336;17.998;2023-01-28T03:03:35;78830.78;;;-145.37;76.85
13486;BME280;6815;59.336;17.998;2023-01-28T03:06:11;78865.00;;;-145.37;77.63
13486;BME280;6815;59.336;17.998;2023-01-28T03:08:50;78871.03;;;-145.37;78.51
13486;BME280;6815;59.336;17.998;2023-01-28T03:11:40;78832.81;;;-145.37;78.13
13486;BME280;6815;59.336;17.998;2023-01-28T03:14:25;78836.81;;;-145.37;77.92
13486;BME280;6815;59.336;17.998;2023-01-28T03:17:18;78858.94;;;-145.37;78.60
13486;BME280;6815;59.336;17.998;2023-01-28T03:20:04;78840.84;;;-145.37;78.63
13486;BME280;6815;59.336;17.998;2023-01-28T03:22:50;78810.66;;;-145.37;77.63
13486;BME280;6815;59.336;17.998;2023-01-28T03:25:37;78800.59;;;-145.37;77.40
13486;BME280;6815;59.336;17.998;2023-01-28T03:28:24;78828.78;;;-145.37;77.79
13486;BME280;6815;59.336;17.998;2023-01-28T03:31:16;78834.81;;;-145.37;78.56
13486;BME280;6815;59.336;17.998;2023-01-28T03:34:03;78834.81;;;-145.37;78.91
13486;BME280;6815;59.336;17.998;2023-01-28T03:36:48;78822.75;;;-145.37;78.25
13486;BME280;6815;59.336;17.998;2023-01-28T03:39:16;78814.69;;;-145.37;78.90
13486;BME280;6815;59.336;17.998;2023-01-28T03:41:54;78790.56;;;-145.37;77.86
13486;BME280;6815;59.336;17.998;2023-01-28T03:44:19;78786.53;;;-145.37;77.79
13486;BME280;6815;59.336;17.998;2023-01-28T03:47:03;78802.63;;;-145.37;78.06
13486;BME280;6815;59.336;17.998;2023-01-28T03:49:32;78770.44;;;-145.37;77.75
13486;BME280;6815;59.336;17.998;2023-01-28T03:51:58;78768.41;;;-145.37;77.65
13486;BME280;6815;59.336;17.998;2023-01-28T03:54:24;78758.34;;;-145.37;77.24
13486;BME280;6815;59.336;17.998;2023-01-28T03:56:49;78758.34;;;-145.37;77.25
13486;BME280;6815;59.336;17.998;2023-01-28T03:59:15;78754.34;;;-145.37;76.99
13486;BME280;6815;59.336;17.998;2023-01-28T04:01:40;78744.28;;;-145.37;77.10
13486;BME280;6815;59.336;17.998;2023-01-28T04:04:06;78748.31;;;-145.37;77.41
13486;BME280;6815;59.336;17.998;2023-01-28T04:06:31;78734.22;;;-145.37;77.63
13486;BME280;6815;59.336;17.998;2023-01-28T04:08:57;78722.16;;;-145.37;77.38
13486;BME280;6815;59.336;17.998;2023-01-28T04:11:25;78738.25;;;-145.37;78.24
13486;BME280;6815;59.336;17.998;2023-01-28T04:13:51;78722.16;;;-145.37;78.35
13486;BME280;6815;59.336;17.998;2023-01-28T04:16:17;78700.03;;;-145.37;77.73
13486;BME280;6815;59.336;17.998;2023-01-28T04:18:44;78687.94;;;-145.37;78.05
13486;BME280;6815;59.336;17.998;2023-01-28T04:21:10;78683.94;;;-145.37;77.82
13486;BME280;6815;59.336;17.998;2023-01-28T04:23:36;78679.91;;;-145.37;77.89
13486;BME280;6815;59.336;17.998;2023-01-28T04:26:02;78679.91;;;-145.37;77.99
13486;BME280;6815;59.336;17.998;2023-01-28T04:28:28;78681.91;;;-145.37;78.32
13486;BME280;6815;59.336;17.998;2023-01-28T04:30:54;78659.78;;;-145.37;78.04
13486;BME280;6815;59.336;17.998;2023-01-28T04:33:19;78657.78;;;-145.37;77.95
13486;BME280;6815;59.336;17.998;2023-01-28T04:35:45;78655.75;;;-145.37;78.51
13486;BME280;6815;59.336;17.998;2023-01-28T04:38:10;78641.69;;;-145.37;78.59
13486;BME280;6815;59.336;17.998;2023-01-28T04:40:36;78633.63;;;-145.37;78.60
13486;BME280;6815;59.336;17.998;2023-01-28T04:43:01;78625.59;;;-145.37;78.94
13486;BME280;6815;59.336;17.998;2023-01-28T04:45:27;78615.53;;;-145.37;78.38
13486;BME280;6815;59.336;17.998;2023-01-28T04:47:53;78621.56;;;-145.37;79.02
13486;BME280;6815;59.336;17.998;2023-01-28T04:50:18;78619.53;;;-145.37;78.98
13486;BME280;6815;59.336;17.998;2023-01-28T04:52:45;78615.53;;;-145.37;79.51
13486;BME280;6815;59.336;17.998;2023-01-28T04:55:11;78587.34;;;-145.37;79.04
13486;BME280;6815;59.336;17.998;2023-01-28T04:57:36;78593.41;;;-145.37;78.61
13486;BME280;6815;59.336;17.998;2023-01-28T05:00:03;78597.41;;;-145.37;79.00
13486;BME280;6815;59.336;17.998;2023-01-28T05:02:29;78603.44;;;-145.37;78.59
13486;BME280;6815;59.336;17.998;2023-01-28T05:04:56;78575.28;;;-145.37;78.65
13486;BME280;6815;59.336;17.998;2023-01-28T05:07:22;78565.22;;;-145.37;78.71
13486;BME280;6815;59.336;17.998;2023-01-28T05:09:48;78555.16;;;-145.37;78.35
13486;BME280;6815;59.336;17.998;2023-01-28T05:12:13;78557.19;;;-145.37;78.28
13486;BME280;6815;59.336;17.998;2023-01-28T05:14:39;78561.22;;;-145.37;78.49
13486;BME280;6815;59.336;17.998;2023-01-28T05:17:04;78565.22;;;-145.37;78.51
13486;BME280;6815;59.336;17.998;2023-01-28T05:19:30;78553.16;;;-145.37;78.37
13486;BME280;6815;59.336;17.998;2023-01-28T05:21:56;78543.09;;;-145.37;78.52
13486;BME280;6815;59.336;17.998;2023-01-28T05:24:23;78537.06;;;-145.37;78.41
13486;BME280;6815;59.336;17.998;2023-01-28T05:26:50;78535.06;;;-145.37;78.34
13486;BME280;6815;59.336;17.998;2023-01-28T05:29:15;78523.00;;;-145.37;78.56
13486;BME280;6815;59.336;17.998;2023-01-28T05:31:41;78525.00;;;-145.37;78.77
13486;BME280;6815;59.336;17.998;2023-01-28T05:34:06;78523.00;;;-145.37;78.82
13486;BME280;6815;59.336;17.998;2023-01-28T05:36:32;78510.91;;;-145.37;78.65
13486;BME280;6815;59.336;17.998;2023-01-28T05:38:58;78504.88;;;-145.37;79.18
13486;BME280;6815;59.336;17.998;2023-01-28T05:41:24;78498.84;;;-145.37;78.99
13486;BME280;6815;59.336;17.998;2023-01-28T05:43:50;78500.84;;;-145.37;79.57
13486;BME280;6815;59.336;17.998;2023-01-28T05:46:15;78498.84;;;-145.37;79.70
13486;BME280;6815;59.336;17.998;2023-01-28T05:48:41;78488.78;;;-145.37;80.07
13486;BME280;6815;59.336;17.998;2023-01-28T05:51:06;78482.75;;;-145.37;79.93
13486;BME280;6815;59.336;17.998;2023-01-28T05:53:32;78474.69;;;-145.37;79.85
13486;BME280;6815;59.336;17.998;2023-01-28T05:55:57;78474.69;;;-145.37;79.98
13486;BME280;6815;59.336;17.998;2023-01-28T05:58:23;78484.75;;;-145.37;79.93
13486;BME280;6815;59.336;17.998;2023-01-28T06:00:48;78486.78;;;-145.37;80.55
13486;BME280;6815;59.336;17.998;2023-01-28T06:03:14;78484.75;;;-145.37;80.09
13486;BME280;6815;59.336;17.998;2023-01-28T06:05:39;78470.69;;;-145.37;79.70
13486;BME280;6815;59.336;17.998;2023-01-28T06:08:05;78472.69;;;-145.37;80.02
13486;BME280;6815;59.336;17.998;2023-01-28T06:10:32;78474.69;;;-145.37;80.29
13486;BME280;6815;59.336;17.998;2023-01-28T06:12:59;78486.78;;;-145.37;80.62
13486;BME280;6815;59.336;17.998;2023-01-28T06:15:26;78476.72;;;-145.37;80.76
13486;BME280;6815;59.336;17.998;2023-01-28T06:17:53;78480.75;;;-145.37;80.78
13486;BME280;6815;59.336;17.998;2023-01-28T06:20:19;78474.69;;;-145.37;80.68
13486;BME280;6815;59.336;17.998;2023-01-28T06:22:45;78472.69;;;-145.37;80.92
13486;BME280;6815;59.336;17.998;2023-01-28T06:25:10;78470.69;;;-145.37;80.85
13486;BME280;6815;59.336;17.998;2023-01-28T06:27:36;78476.72;;;-145.37;80.92
13486;BME280;6815;59.336;17.998;2023-01-28T06:30:05;78494.81;;;-145.37;81.39
13486;BME280;6815;59.336;17.998;2023-01-28T06:32:30;78486.78;;;-145.37;81.48
13486;BME280;6815;59.336;17.998;2023-01-28T06:34:56;78484.75;;;-145.37;81.70
13486;BME280;6815;59.336;17.998;2023-01-28T06:37:22;78488.78;;;-145.37;81.86
13486;BME280;6815;59.336;17.998;2023-01-28T06:39:47;78488.78;;;-145.37;81.79
13486;BME280;6815;59.336;17.998;2023-01-28T06:42:13;78498.84;;;-145.37;82.21
13486;BME280;6815;59.336;17.998;2023-01-28T06:44:38;78490.78;;;-145.37;81.91
13486;BME280;6815;59.336;17.998;2023-01-28T06:47:03;78456.59;;;-145.37;81.33
13486;BME280;6815;59.336;17.998;2023-01-28T06:49:29;78478.72;;;-145.37;81.71
13486;BME280;6815;59.336;17.998;2023-01-28T06:51:54;78484.75;;;-145.37;82.20
13486;BME280;6815;59.336;17.998;2023-01-28T06:54:20;78486.78;;;-145.37;82.47
13486;BME280;6815;59.336;17.998;2023-01-28T06:56:46;78468.66;;;-145.37;82.13
13486;BME280;6815;59.336;17.998;2023-01-28T06:59:11;78476.72;;;-145.37;82.57
13486;BME280;6815;59.336;17.998;2023-01-28T07:01:38;78454.59;;;-145.37;81.91
13486;BME280;6815;59.336;17.998;2023-01-28T07:04:03;78460.63;;;-145.37;82.33
13486;BME280;6815;59.336;17.998;2023-01-28T07:06:29;78460.63;;;-145.37;82.78
13486;BME280;6815;59.336;17.998;2023-01-28T07:08:54;78440.50;;;-145.37;82.23
13486;BME280;6815;59.336;17.998;2023-01-28T07:11:20;78432.47;;;-145.37;81.52
13486;BME280;6815;59.336;17.998;2023-01-28T07:13:45;78450.56;;;-145.37;82.52
13486;BME280;6815;59.336;17.998;2023-01-28T07:16:12;78458.63;;;-145.37;82.66
13486;BME280;6815;59.336;17.998;2023-01-28T07:18:38;78454.59;;;-145.37;83.15
13486;BME280;6815;59.336;17.998;2023-01-28T07:21:04;78460.63;;;-145.37;83.64
13486;BME280;6815;59.336;17.998;2023-01-28T07:23:29;78436.47;;;-145.37;83.18
13486;BME280;6815;59.336;17.998;2023-01-28T07:26:00;78450.56;;;-145.37;83.34
13486;BME280;6815;59.336;17.998;2023-01-28T07:28:25;78430.44;;;-145.37;82.98
13486;BME280;6815;59.336;17.998;2023-01-28T07:30:52;78462.63;;;-145.37;83.12
13486;BME280;6815;59.336;17.998;2023-01-28T07:33:17;78456.59;;;-145.37;83.70
13486;BME280;6815;59.336;17.998;2023-01-28T07:35:44;78452.56;;;-145.37;84.13
13486;BME280;6815;59.336;17.998;2023-01-28T07:38:09;78436.47;;;-145.37;83.57
13486;BME280;6815;59.336;17.998;2023-01-28T07:40:35;78458.63;;;-145.37;84.17
13486;BME280;6815;59.336;17.998;2023-01-28T07:43:00;78458.63;;;-145.37;84.54
13486;BME280;6815;59.336;17.998;2023-01-28T07:45:26;78458.63;;;-145.37;84.99
13486;BME280;6815;59.336;17.998;2023-01-28T07:48:00;78432.47;;;-145.37;84.03
13486;BME280;6815;59.336;17.998;2023-01-28T07:50:27;78434.47;;;-145.37;84.60
13486;BME280;6815;59.336;17.998;2023-01-28T07:52:54;78418.38;;;-145.37;84.12
13486;BME280;6815;59.336;17.998;2023-01-28T07:55:20;78418.38;;;-145.37;84.60
13486;BME280;6815;59.336;17.998;2023-01-28T07:57:53;78406.31;;;-145.37;84.09
13486;BME280;6815;59.336;17.998;2023-01-28T08:00:20;78420.38;;;-145.37;84.31
13486;BME280;6815;59.336;17.998;2023-01-28T08:02:47;78408.31;;;-145.37;84.23
13486;BME280;6815;59.336;17.998;2023-01-28T08:05:17;78414.34;;;-145.37;84.90
13486;BME280;6815;59.336;17.998;2023-01-28T08:07:45;78420.38;;;-145.37;85.13
13486;BME280;6815;59.336;17.998;2023-01-28T08:10:12;78406.31;;;-145.37;85.18
13486;BME280;6815;59.336;17.998;2023-01-28T08:12:38;78400.28;;;-145.37;85.27
13486;BME280;6815;59.336;17.998;2023-01-28T08:15:04;78392.22;;;-145.37;85.52
13486;BME280;6815;59.336;17.998;2023-01-28T08:17:31;78418.38;;;-145.37;86.13
13486;BME280;6815;59.336;17.998;2023-01-28T08:19:56;78410.34;;;-145.37;86.22
13486;BME280;6815;59.336;17.998;2023-01-28T08:22:26;78394.25;;;-145.37;86.54
13486;BME280;6815;59.336;17.998;2023-01-28T08:24:51;78390.22;;;-145.37;86.36
13486;BME280;6815;59.336;17.998;2023-01-28T08:27:18;78386.19;;;-145.37;86.61
13486;BME280;6815;59.336;17.998;2023-01-28T08:29:45;78386.19;;;-145.37;86.81
13486;BME280;6815;59.336;17.998;2023-01-28T08:32:11;78406.31;;;-145.37;86.75
13486;BME280;6815;59.336;17.998;2023-01-28T08:34:36;78380.16;;;-145.37;86.93
13486;BME280;6815;59.336;17.998;2023-01-28T08:37:02;78382.16;;;-145.37;86.92
13486;BME280;6815;59.336;17.998;2023-01-28T08:39:30;78360.03;;;-145.37;87.02
13486;BME280;6815;59.336;17.998;2023-01-28T08:41:56;78341.94;;;-145.37;85.76
13486;BME280;6815;59.336;17.998;2023-01-28T08:44:21;78358.03;;;-145.37;87.09
13486;BME280;6815;59.336;17.998;2023-01-28T08:46:47;78354.00;;;-145.37;87.48
13486;BME280;6815;59.336;17.998;2023-01-28T08:49:12;78352.00;;;-145.37;87.26
13486;BME280;6815;59.336;17.998;2023-01-28T08:51:37;78362.06;;;-145.37;87.70
13486;BME280;6815;59.336;17.998;2023-01-28T08:54:03;78366.06;;;-145.37;87.77
13486;BME280;6815;59.336;17.998;2023-01-28T08:56:28;78376.13;;;-145.37;87.85
13486;BME280;6815;59.336;17.998;2023-01-28T08:58:54;78364.06;;;-145.37;88.01
13486;BME280;6815;59.336;17.998;2023-01-28T09:01:20;78360.03;;;-145.37;87.87
13486;BME280;6815;59.336;17.998;2023-01-28T09:03:46;78360.03;;;-145.37;88.08
13486;BME280;6815;59.336;17.998;2023-01-28T09:06:11;78356.03;;;-145.37;88.39
13486;BME280;6815;59.336;17.998;2023-01-28T09:08:39;78349.97;;;-145.37;88.18
13486;BME280;6815;59.336;17.998;2023-01-28T09:11:05;78347.97;;;-145.37;88.27
13486;BME280;6815;59.336;17.998;2023-01-28T09:13:31;78315.78;;;-145.37;88.09
13486;BME280;6815;59.336;17.998;2023-01-28T09:15:56;78319.81;;;-145.37;88.38
13486;BME280;6815;59.336;17.998;2023-01-28T09:18:22;78309.75;;;-145.37;88.05
13486;BME280;6815;59.336;17.998;2023-01-28T09:20:47;78303.72;;;-145.37;88.32
13486;BME280;6815;59.336;17.998;2023-01-28T09:23:13;78307.75;;;-145.37;88.90
13486;BME280;6815;59.336;17.998;2023-01-28T09:25:38;78301.69;;;-145.37;88.92
13486;BME280;6815;59.336;17.998;2023-01-28T09:28:04;78293.66;;;-145.37;88.49
13486;BME280;6815;59.336;17.998;2023-01-28T09:30:30;78297.69;;;-145.37;89.00
13486;BME280;6815;59.336;17.998;2023-01-28T09:32:56;78269.53;;;-145.37;89.37
13486;BME280;6815;59.336;17.998;2023-01-28T09:35:25;78265.50;;;-145.37;89.01
13486;BME280;6815;59.336;17.998;2023-01-28T09:37:50;78263.47;;;-145.37;89.30
13486;BME280;6815;59.336;17.998;2023-01-28T09:40:27;78275.56;;;-145.37;89.46
13486;BME280;6815;59.336;17.998;2023-01-28T09:45:43;78249.41;;;-145.37;89.68
13486;BME280;6815;59.336;17.998;2023-01-28T09:48:14;78249.41;;;-145.37;89.62
13486;BME280;6815;59.336;17.998;2023-01-28T09:50:44;78241.34;;;-145.37;89.65
13486;BME280;6815;59.336;17.998;2023-01-28T09:53:22;78229.28;;;-145.37;89.39
13486;BME280;6815;59.336;17.998;2023-01-28T09:56:04;78229.28;;;-145.37;89.85
13486;BME280;6815;59.336;17.998;2023-01-28T09:58:30;78213.19;;;-145.37;89.90
13486;BME280;6815;59.336;17.998;2023-01-28T10:17:41;78164.91;;;-145.37;90.07
13486;BME280;6815;59.336;17.998;2023-01-28T10:22:45;78150.84;;;-145.37;89.75
13486;BME280;6815;59.336;17.998;2023-01-28T10:25:19;78138.78;;;-145.37;89.60
13486;BME280;6815;59.336;17.998;2023-01-28T10:27:47;78132.75;;;-145.37;89.27
13486;BME280;6815;59.336;17.998;2023-01-28T10:30:24;78130.72;;;-145.37;89.78
13486;BME280;6815;59.336;17.998;2023-01-28T10:33:05;78130.72;;;-145.37;89.92
13486;BME280;6815;59.336;17.998;2023-01-28T10:35:38;78120.66;;;-145.37;90.04
13486;BME280;6815;59.336;17.998;2023-01-28T10:38:08;78118.66;;;-145.37;90.08
13486;BME280;6815;59.336;17.998;2023-01-28T10:40:35;78116.66;;;-145.37;90.25
13486;BME280;6815;59.336;17.998;2023-01-28T10:43:00;78108.59;;;-145.37;90.21
13486;BME280;6815;59.336;17.998;2023-01-28T10:45:29;78106.59;;;-145.37;90.22
13486;BME280;6815;59.336;17.998;2023-01-28T10:50:29;78104.56;;;-145.37;90.26
13486;BME280;6815;59.336;17.998;2023-01-28T10:53:00;78118.66;;;-145.37;90.48
13486;BME280;6815;59.336;17.998;2023-01-28T10:55:29;78112.63;;;-145.37;90.48
13486;BME280;6815;59.336;17.998;2023-01-28T10:57:55;78102.56;;;-145.37;90.41
13486;BME280;6815;59.336;17.998;2023-01-28T11:00:25;78110.59;;;-145.37;90.17
13486;BME280;6815;59.336;17.998;2023-01-28T11:02:52;78108.59;;;-145.37;90.29
13486;BME280;6815;59.336;17.998;2023-01-28T11:05:21;78092.50;;;-145.37;90.51
13486;BME280;6815;59.336;17.998;2023-01-28T11:07:47;78082.44;;;-145.37;90.42
13486;BME280;6815;59.336;17.998;2023-01-28T11:10:35;78070.38;;;-145.37;90.34
13486;BME280;6815;59.336;17.998;2023-01-28T11:13:14;78076.41;;;-145.37;90.37
13486;BME280;6815;59.336;17.998;2023-01-28T11:15:46;78062.34;;;-145.37;90.45
13486;BME280;6815;59.336;17.998;2023-01-28T11:18:22;78048.25;;;-145.37;90.40
13486;BME280;6815;59.336;17.998;2023-01-28T11:20:52;78048.25;;;-145.37;90.31
13486;BME280;6815;59.336;17.998;2023-01-28T11:23:24;78042.22;;;-145.37;90.39
13486;BME280;6815;59.336;17.998;2023-01-28T11:26:00;78038.19;;;-145.37;90.37
13486;BME280;6815;59.336;17.998;2023-01-28T11:28:26;78036.19;;;-145.37;89.89
13486;BME280;6815;59.336;17.998;2023-01-28T11:30:55;78032.16;;;-145.37;90.25
13486;BME280;6815;59.336;17.998;2023-01-28T11:33:26;78024.13;;;-145.37;90.17
13486;BME280;6815;59.336;17.998;2023-01-28T11:35:55;78018.09;;;-145.37;89.97
13486;BME280;6815;59.336;17.998;2023-01-28T11:38:23;78012.06;;;-145.37;90.28
13486;BME280;6815;59.336;17.998;2023-01-28T11:40:50;78014.06;;;-145.37;89.99
13486;BME280;6815;59.336;17.998;2023-01-28T11:43:17;78004.00;;;-145.37;90.42
13486;BME280;6815;59.336;17.998;2023-01-28T11:49:12;77991.94;;;-145.37;90.38
13486;BME280;6815;59.336;17.998;2023-01-28T12:04:36;77975.84;;;-145.37;90.62
13486;BME280;6815;59.336;17.998;2023-01-28T12:15:30;77945.69;;;-145.37;90.47
13486;BME280;6815;59.336;17.998;2023-01-28T12:24:00;77935.63;;;-145.37;90.41
13486;BME280;6815;59.336;17.998;2023-01-28T12:29:21;77943.66;;;-145.37;90.84
13486;BME280;6815;59.336;17.998;2023-01-28T12:32:02;77935.63;;;-145.37;90.56
13486;BME280;6815;59.336;17.998;2023-01-28T12:46:11;77933.59;;;-145.37;90.50
13486;BME280;6815;59.336;17.998;2023-01-28T12:48:43;77933.59;;;-145.37;90.67
13486;BME280;6815;59.336;17.998;2023-01-28T12:51:26;77927.56;;;-145.37;90.64
13486;BME280;6815;59.336;17.998;2023-01-28T12:54:09;77927.56;;;-145.37;90.67
13486;BME280;6815;59.336;17.998;2023-01-28T12:56:42;77925.56;;;-145.37;90.75
13486;BME280;6815;59.336;17.998;2023-01-28T12:59:45;77927.56;;;-145.37;90.66
13486;BME280;6815;59.336;17.998;2023-01-28T13:02:20;77923.56;;;-145.37;90.51
13486;BME280;6815;59.336;17.998;2023-01-28T13:05:11;77917.50;;;-145.37;90.73
13486;BME280;6815;59.336;17.998;2023-01-28T13:10:31;77927.56;;;-145.37;90.98
13486;BME280;6815;59.336;17.998;2023-01-28T13:13:01;77931.59;;;-145.37;90.69
13486;BME280;6815;59.336;17.998;2023-01-28T13:15:28;77925.56;;;-145.37;90.86
13486;BME280;6815;59.336;17.998;2023-01-28T13:20:47;77919.53;;;-145.37;90.76
13486;BME280;6815;59.336;17.998;2023-01-28T13:25:56;77919.53;;;-145.37;90.76
13486;BME280;6815;59.336;17.998;2023-01-28T13:28:33;77913.50;;;-145.37;90.62
13486;BME280;6815;59.336;17.998;2023-01-28T13:31:10;77911.47;;;-145.37;90.68
13486;BME280;6815;59.336;17.998;2023-01-28T13:33:44;77917.50;;;-145.37;90.79
13486;BME280;6815;59.336;17.998;2023-01-28T13:38:42;77915.50;;;-145.37;90.67
13486;BME280;6815;59.336;17.998;2023-01-28T13:41:08;77915.50;;;-145.37;90.81
13486;BME280;6815;59.336;17.998;2023-01-28T13:43:37;77921.53;;;-145.37;90.93
13486;BME280;6815;59.336;17.998;2023-01-28T13:46:07;77929.59;;;-145.37;90.88
13486;BME280;6815;59.336;17.998;2023-01-28T13:48:50;77933.59;;;-145.37;91.18
13486;BME280;6815;59.336;17.998;2023-01-28T13:51:22;77937.63;;;-145.37;91.33
13486;BME280;6815;59.336;17.998;2023-01-28T13:53:57;77935.63;;;-145.37;91.22
13486;BME280;6815;59.336;17.998;2023-01-28T13:56:27;77943.66;;;-145.37;91.36
13486;BME280;6815;59.336;17.998;2023-01-28T14:09:40;77947.69;;;-145.37;91.23
13486;BME280;6815;59.336;17.998;2023-01-28T14:12:28;77957.75;;;-145.37;90.97
13486;BME280;6815;59.336;17.998;2023-01-28T14:17:43;77959.75;;;-145.37;91.57
13486;BME280;6815;59.336;17.998;2023-01-28T14:20:32;77961.75;;;-145.37;91.78
13486;BME280;6815;59.336;17.998;2023-01-28T14:23:15;77955.72;;;-145.37;91.61
13486;BME280;6815;59.336;17.998;2023-01-28T14:29:06;77973.84;;;-145.37;91.61
13486;BME280;6815;59.336;17.998;2023-01-28T14:31:38;77977.84;;;-145.37;91.61
13486;BME280;6815;59.336;17.998;2023-01-28T14:34:27;77975.84;;;-145.37;91.71
13486;BME280;6815;59.336;17.998;2023-01-28T14:36:57;77983.88;;;-145.37;91.38
13486;BME280;6815;59.336;17.998;2023-01-28T14:39:30;77973.84;;;-145.37;91.67
13486;BME280;6815;59.336;17.998;2023-01-28T14:41:58;77985.91;;;-145.37;91.73
13486;BME280;6815;59.336;17.998;2023-01-28T14:49:39;78002.00;;;-145.37;91.69
13486;BME280;6815;59.336;17.998;2023-01-28T14:57:49;78006.00;;;-145.37;91.46